sensor_id;sensor_type;location;lat;lon;timestamp;P1;durP1;ratioP1;P2;durP2;ratioP2
2111;SDS011;1062;52.538;13.400;2023-05-17T00:00:55;4.50;;;1.67;;
2111;SDS011;1062;52.538;13.400;2023-05-17T00:03:21;4.60;;;1.67;;
2111;SDS011;1062;52.538;13.400;2023-05-17T00:05:46;3.30;;;1.80;;
2111;SDS011;1062;52.538;13.400;2023-05-17T00:08:12;5.17;;;1.87;;
2111;SDS011;1062;52.538;13.400;2023-05-17T00:10:38;5.53;;;1.87;;
2111;SDS011;1062;52.538;13.400;2023-05-17T00:13:03;1.77;;;1.40;;
2111;SDS011;1062;52.538;13.400;2023-05-17T00:15:29;4.40;;;3.07;;
2111;SDS011;1062;52.538;13.400;2023-05-17T00:17:55;6.30;;;1.90;;
2111;SDS011;1062;52.538;13.400;2023-05-17T00:20:21;4.13;;;2.50;;
2111;SDS011;1062;52.538;13.400;2023-05-17T00:22:46;1.90;;;1.67;;
2111;SDS011;1062;52.538;13.400;2023-05-17T00:25:12;3.10;;;2.00;;
2111;SDS011;1062;52.538;13.400;2023-05-17T00:27:38;6.23;;;2.23;;
2111;SDS011;1062;52.538;13.400;2023-05-17T00:30:04;2.70;;;2.07;;
2111;SDS011;1062;52.538;13.400;2023-05-17T00:32:30;5.90;;;2.27;;
2111;SDS011;1062;52.538;13.400;2023-05-17T00:34:55;5.93;;;2.50;;
2111;SDS011;1062;52.538;13.400;2023-05-17T00:37:21;13.00;;;3.00;;
2111;SDS011;1062;52.538;13.400;2023-05-17T00:39:47;7.93;;;2.80;;
2111;SDS011;1062;52.538;13.400;2023-05-17T00:42:13;7.60;;;2.80;;
2111;SDS011;1062;52.538;13.400;2023-05-17T00:44:39;4.30;;;2.60;;
2111;SDS011;1062;52.538;13.400;2023-05-17T00:47:05;4.60;;;2.30;;
2111;SDS011;1062;52.538;13.400;2023-05-17T00:49:31;9.50;;;3.07;;
2111;SDS011;1062;52.538;13.400;2023-05-17T00:51:57;10.93;;;2.80;;
2111;SDS011;1062;52.538;13.400;2023-05-17T00:54:23;6.07;;;3.13;;
2111;SDS011;1062;52.538;13.400;2023-05-17T00:56:50;7.37;;;2.57;;
2111;SDS011;1062;52.538;13.400;2023-05-17T00:59:17;3.10;;;2.53;;
2111;SDS011;1062;52.538;13.400;2023-05-17T01:01:43;7.10;;;3.60;;
2111;SDS011;1062;52.538;13.400;2023-05-17T01:04:09;6.00;;;3.13;;
2111;SDS011;1062;52.538;13.400;2023-05-17T01:06:35;3.93;;;2.50;;
2111;SDS011;1062;52.538;13.400;2023-05-17T01:09:01;4.30;;;2.60;;
2111;SDS011;1062;52.538;13.400;2023-05-17T01:17:23;9.57;;;4.17;;
2111;SDS011;1062;52.538;13.400;2023-05-17T01:27:45;6.00;;;3.20;;
2111;SDS011;1062;52.538;13.400;2023-05-17T01:30:13;6.53;;;2.90;;
2111;SDS011;1062;52.538;13.400;2023-05-17T01:32:40;9.90;;;3.23;;
2111;SDS011;1062;52.538;13.400;2023-05-17T01:35:07;7.50;;;2.80;;
2111;SDS011;1062;52.538;13.400;2023-05-17T01:37:33;4.83;;;3.30;;
2111;SDS011;1062;52.538;13.400;2023-05-17T01:39:58;3.70;;;3.07;;
2111;SDS011;1062;52.538;13.400;2023-05-17T01:42:31;10.87;;;3.40;;
2111;SDS011;1062;52.538;13.400;2023-05-17T01:47:35;12.17;;;4.30;;
2111;SDS011;1062;52.538;13.400;2023-05-17T01:50:25;5.17;;;3.60;;
2111;SDS011;1062;52.538;13.400;2023-05-17T01:52:54;7.83;;;3.03;;
2111;SDS011;1062;52.538;13.400;2023-05-17T01:56:09;10.30;;;4.43;;
2111;SDS011;1062;52.538;13.400;2023-05-17T01:58:17;7.93;;;2.67;;
2111;SDS011;1062;52.538;13.400;2023-05-17T02:00:48;7.27;;;3.63;;
2111;SDS011;1062;52.538;13.400;2023-05-17T02:03:18;13.73;;;4.03;;
2111;SDS011;1062;52.538;13.400;2023-05-17T02:05:44;8.13;;;3.50;;
2111;SDS011;1062;52.538;13.400;2023-05-17T02:08:10;7.57;;;3.30;;
2111;SDS011;1062;52.538;13.400;2023-05-17T02:10:36;13.13;;;3.93;;
2111;SDS011;1062;52.538;13.400;2023-05-17T02:13:02;11.17;;;3.57;;
2111;SDS011;1062;52.538;13.400;2023-05-17T02:15:28;8.23;;;4.10;;
2111;SDS011;1062;52.538;13.400;2023-05-17T02:17:53;9.70;;;4.03;;
2111;SDS011;1062;52.538;13.400;2023-05-17T02:20:19;8.30;;;3.20;;
2111;SDS011;1062;52.538;13.400;2023-05-17T02:22:45;13.80;;;6.17;;
2111;SDS011;1062;52.538;13.400;2023-05-17T02:25:10;12.60;;;3.30;;
2111;SDS011;1062;52.538;13.400;2023-05-17T02:27:36;12.13;;;4.37;;
2111;SDS011;1062;52.538;13.400;2023-05-17T02:30:02;16.07;;;4.23;;
2111;SDS011;1062;52.538;13.400;2023-05-17T02:32:28;15.10;;;5.70;;
2111;SDS011;1062;52.538;13.400;2023-05-17T02:34:55;8.87;;;3.80;;
2111;SDS011;1062;52.538;13.400;2023-05-17T02:37:20;17.37;;;6.67;;
2111;SDS011;1062;52.538;13.400;2023-05-17T02:39:46;9.23;;;4.40;;
2111;SDS011;1062;52.538;13.400;2023-05-17T02:42:12;7.47;;;3.30;;
2111;SDS011;1062;52.538;13.400;2023-05-17T02:44:37;7.80;;;4.60;;
2111;SDS011;1062;52.538;13.400;2023-05-17T02:47:03;15.27;;;4.50;;
2111;SDS011;1062;52.538;13.400;2023-05-17T02:49:29;10.60;;;4.27;;
2111;SDS011;1062;52.538;13.400;2023-05-17T02:51:54;8.50;;;4.40;;
2111;SDS011;1062;52.538;13.400;2023-05-17T02:54:20;9.90;;;4.30;;
2111;SDS011;1062;52.538;13.400;2023-05-17T02:56:46;13.80;;;3.40;;
2111;SDS011;1062;52.538;13.400;2023-05-17T02:59:11;9.37;;;4.00;;
2111;SDS011;1062;52.538;13.400;2023-05-17T03:01:38;5.67;;;3.47;;
2111;SDS011;1062;52.538;13.400;2023-05-17T03:04:04;13.63;;;6.00;;
2111;SDS011;1062;52.538;13.400;2023-05-17T03:06:30;6.90;;;4.20;;
2111;SDS011;1062;52.538;13.400;2023-05-17T03:08:55;14.57;;;6.40;;
2111;SDS011;1062;52.538;13.400;2023-05-17T03:11:21;10.03;;;3.53;;
2111;SDS011;1062;52.538;13.400;2023-05-17T03:13:49;12.03;;;3.40;;
2111;SDS011;1062;52.538;13.400;2023-05-17T03:16:15;8.23;;;3.30;;
2111;SDS011;1062;52.538;13.400;2023-05-17T03:18:42;13.80;;;4.13;;
2111;SDS011;1062;52.538;13.400;2023-05-17T03:21:10;9.53;;;3.13;;
2111;SDS011;1062;52.538;13.400;2023-05-17T03:23:36;8.80;;;3.90;;
2111;SDS011;1062;52.538;13.400;2023-05-17T03:26:01;11.03;;;4.53;;
2111;SDS011;1062;52.538;13.400;2023-05-17T03:28:27;14.90;;;4.70;;
2111;SDS011;1062;52.538;13.400;2023-05-17T03:30:53;10.40;;;4.03;;
2111;SDS011;1062;52.538;13.400;2023-05-17T03:33:18;9.77;;;3.30;;
2111;SDS011;1062;52.538;13.400;2023-05-17T03:35:44;10.30;;;3.77;;
2111;SDS011;1062;52.538;13.400;2023-05-17T03:38:13;5.27;;;2.83;;
2111;SDS011;1062;52.538;13.400;2023-05-17T03:40:39;8.37;;;3.90;;
2111;SDS011;1062;52.538;13.400;2023-05-17T03:43:05;10.43;;;3.30;;
2111;SDS011;1062;52.538;13.400;2023-05-17T03:45:31;12.70;;;3.33;;
2111;SDS011;1062;52.538;13.400;2023-05-17T03:47:59;6.70;;;3.80;;
2111;SDS011;1062;52.538;13.400;2023-05-17T03:50:25;9.33;;;3.60;;
2111;SDS011;1062;52.538;13.400;2023-05-17T03:52:50;7.80;;;2.90;;
2111;SDS011;1062;52.538;13.400;2023-05-17T03:55:16;12.63;;;3.07;;
2111;SDS011;1062;52.538;13.400;2023-05-17T03:57:44;12.83;;;4.20;;
2111;SDS011;1062;52.538;13.400;2023-05-17T04:00:10;5.83;;;3.63;;
2111;SDS011;1062;52.538;13.400;2023-05-17T04:02:36;12.70;;;4.00;;
2111;SDS011;1062;52.538;13.400;2023-05-17T04:05:03;14.40;;;4.20;;
2111;SDS011;1062;52.538;13.400;2023-05-17T04:07:29;8.00;;;3.40;;
2111;SDS011;1062;52.538;13.400;2023-05-17T04:09:55;5.93;;;3.10;;
2111;SDS011;1062;52.538;13.400;2023-05-17T04:12:26;6.73;;;3.50;;
2111;SDS011;1062;52.538;13.400;2023-05-17T04:14:52;9.13;;;3.13;;
2111;SDS011;1062;52.538;13.400;2023-05-17T04:17:20;10.80;;;4.07;;
2111;SDS011;1062;52.538;13.400;2023-05-17T04:19:46;6.10;;;3.90;;
2111;SDS011;1062;52.538;13.400;2023-05-17T04:22:12;10.40;;;3.87;;
2111;SDS011;1062;52.538;13.400;2023-05-17T04:24:38;10.17;;;4.20;;
2111;SDS011;1062;52.538;13.400;2023-05-17T04:27:03;14.97;;;4.10;;
2111;SDS011;1062;52.538;13.400;2023-05-17T04:29:30;13.57;;;3.77;;
2111;SDS011;1062;52.538;13.400;2023-05-17T04:31:56;12.80;;;4.03;;
2111;SDS011;1062;52.538;13.400;2023-05-17T04:34:24;14.23;;;3.50;;
2111;SDS011;1062;52.538;13.400;2023-05-17T04:36:50;10.73;;;4.37;;
2111;SDS011;1062;52.538;13.400;2023-05-17T04:39:16;8.30;;;3.93;;
2111;SDS011;1062;52.538;13.400;2023-05-17T04:41:45;7.00;;;3.63;;
2111;SDS011;1062;52.538;13.400;2023-05-17T04:44:10;7.57;;;4.80;;
2111;SDS011;1062;52.538;13.400;2023-05-17T04:46:57;12.07;;;4.10;;
2111;SDS011;1062;52.538;13.400;2023-05-17T04:49:23;6.23;;;3.80;;
2111;SDS011;1062;52.538;13.400;2023-05-17T04:51:49;6.03;;;3.63;;
2111;SDS011;1062;52.538;13.400;2023-05-17T04:54:14;5.23;;;4.40;;
2111;SDS011;1062;52.538;13.400;2023-05-17T04:56:40;10.33;;;3.90;;
2111;SDS011;1062;52.538;13.400;2023-05-17T04:59:05;9.03;;;3.60;;
2111;SDS011;1062;52.538;13.400;2023-05-17T05:01:31;6.00;;;3.70;;
2111;SDS011;1062;52.538;13.400;2023-05-17T05:03:59;6.07;;;3.63;;
2111;SDS011;1062;52.538;13.400;2023-05-17T05:06:25;8.73;;;3.27;;
2111;SDS011;1062;52.538;13.400;2023-05-17T05:08:50;10.10;;;3.67;;
2111;SDS011;1062;52.538;13.400;2023-05-17T05:11:16;8.23;;;4.23;;
2111;SDS011;1062;52.538;13.400;2023-05-17T05:13:42;4.43;;;2.87;;
2111;SDS011;1062;52.538;13.400;2023-05-17T05:16:10;4.43;;;3.10;;
2111;SDS011;1062;52.538;13.400;2023-05-17T05:18:36;7.90;;;3.50;;
2111;SDS011;1062;52.538;13.400;2023-05-17T05:21:01;5.43;;;2.50;;
2111;SDS011;1062;52.538;13.400;2023-05-17T05:23:30;6.90;;;3.17;;
2111;SDS011;1062;52.538;13.400;2023-05-17T05:25:56;6.90;;;3.10;;
2111;SDS011;1062;52.538;13.400;2023-05-17T05:28:24;9.30;;;3.30;;
2111;SDS011;1062;52.538;13.400;2023-05-17T05:30:55;5.80;;;2.10;;
2111;SDS011;1062;52.538;13.400;2023-05-17T05:33:22;5.70;;;2.50;;
2111;SDS011;1062;52.538;13.400;2023-05-17T05:35:51;4.27;;;2.50;;
2111;SDS011;1062;52.538;13.400;2023-05-17T05:38:16;7.30;;;3.47;;
2111;SDS011;1062;52.538;13.400;2023-05-17T05:40:45;3.03;;;2.10;;
2111;SDS011;1062;52.538;13.400;2023-05-17T05:43:14;7.97;;;4.00;;
2111;SDS011;1062;52.538;13.400;2023-05-17T05:45:40;5.97;;;4.27;;
2111;SDS011;1062;52.538;13.400;2023-05-17T05:48:10;8.00;;;3.13;;
2111;SDS011;1062;52.538;13.400;2023-05-17T05:50:36;7.33;;;2.90;;
2111;SDS011;1062;52.538;13.400;2023-05-17T05:53:02;4.90;;;2.93;;
2111;SDS011;1062;52.538;13.400;2023-05-17T05:55:28;7.40;;;2.83;;
2111;SDS011;1062;52.538;13.400;2023-05-17T05:57:53;5.40;;;2.43;;
2111;SDS011;1062;52.538;13.400;2023-05-17T06:00:19;7.80;;;3.47;;
2111;SDS011;1062;52.538;13.400;2023-05-17T06:02:45;8.50;;;3.00;;
2111;SDS011;1062;52.538;13.400;2023-05-17T06:05:10;6.33;;;2.57;;
2111;SDS011;1062;52.538;13.400;2023-05-17T06:07:36;10.73;;;3.67;;
2111;SDS011;1062;52.538;13.400;2023-05-17T06:10:02;4.87;;;2.70;;
2111;SDS011;1062;52.538;13.400;2023-05-17T06:12:28;7.23;;;2.93;;
2111;SDS011;1062;52.538;13.400;2023-05-17T06:14:53;7.80;;;3.23;;
2111;SDS011;1062;52.538;13.400;2023-05-17T06:17:19;8.97;;;3.13;;
2111;SDS011;1062;52.538;13.400;2023-05-17T06:19:45;2.90;;;2.60;;
2111;SDS011;1062;52.538;13.400;2023-05-17T06:22:13;7.77;;;2.60;;
2111;SDS011;1062;52.538;13.400;2023-05-17T06:24:39;6.10;;;2.13;;
2111;SDS011;1062;52.538;13.400;2023-05-17T06:27:05;5.53;;;2.53;;
2111;SDS011;1062;52.538;13.400;2023-05-17T06:29:31;6.83;;;2.40;;
2111;SDS011;1062;52.538;13.400;2023-05-17T06:31:57;6.27;;;2.70;;
2111;SDS011;1062;52.538;13.400;2023-05-17T06:34:23;5.83;;;2.77;;
2111;SDS011;1062;52.538;13.400;2023-05-17T06:36:49;4.07;;;2.20;;
2111;SDS011;1062;52.538;13.400;2023-05-17T06:39:15;7.03;;;2.23;;
2111;SDS011;1062;52.538;13.400;2023-05-17T06:41:40;7.40;;;2.20;;
2111;SDS011;1062;52.538;13.400;2023-05-17T06:44:06;6.03;;;2.30;;
2111;SDS011;1062;52.538;13.400;2023-05-17T06:46:34;5.10;;;2.53;;
2111;SDS011;1062;52.538;13.400;2023-05-17T06:49:00;5.80;;;2.27;;
2111;SDS011;1062;52.538;13.400;2023-05-17T06:51:26;7.47;;;2.33;;
2111;SDS011;1062;52.538;13.400;2023-05-17T06:53:51;7.73;;;1.80;;
2111;SDS011;1062;52.538;13.400;2023-05-17T06:56:20;5.60;;;2.40;;
2111;SDS011;1062;52.538;13.400;2023-05-17T06:58:46;3.10;;;1.80;;
2111;SDS011;1062;52.538;13.400;2023-05-17T07:01:12;4.60;;;1.43;;
2111;SDS011;1062;52.538;13.400;2023-05-17T07:03:38;7.43;;;1.80;;
2111;SDS011;1062;52.538;13.400;2023-05-17T07:06:03;3.60;;;1.70;;
2111;SDS011;1062;52.538;13.400;2023-05-17T07:08:29;6.17;;;2.33;;
2111;SDS011;1062;52.538;13.400;2023-05-17T07:10:55;6.43;;;1.60;;
2111;SDS011;1062;52.538;13.400;2023-05-17T07:13:20;5.60;;;3.07;;
2111;SDS011;1062;52.538;13.400;2023-05-17T07:15:46;4.93;;;2.30;;
2111;SDS011;1062;52.538;13.400;2023-05-17T07:18:15;6.10;;;2.20;;
2111;SDS011;1062;52.538;13.400;2023-05-17T07:20:41;4.80;;;2.17;;
2111;SDS011;1062;52.538;13.400;2023-05-17T07:23:06;3.97;;;2.13;;
2111;SDS011;1062;52.538;13.400;2023-05-17T07:25:33;4.80;;;2.00;;
2111;SDS011;1062;52.538;13.400;2023-05-17T07:28:02;4.00;;;1.70;;
2111;SDS011;1062;52.538;13.400;2023-05-17T07:30:29;4.17;;;1.97;;
2111;SDS011;1062;52.538;13.400;2023-05-17T07:32:55;5.60;;;2.37;;
2111;SDS011;1062;52.538;13.400;2023-05-17T07:35:21;3.90;;;2.57;;
2111;SDS011;1062;52.538;13.400;2023-05-17T07:37:46;3.17;;;1.60;;
2111;SDS011;1062;52.538;13.400;2023-05-17T07:40:12;4.43;;;2.20;;
2111;SDS011;1062;52.538;13.400;2023-05-17T07:42:38;3.00;;;1.90;;
2111;SDS011;1062;52.538;13.400;2023-05-17T07:45:04;7.43;;;2.87;;
2111;SDS011;1062;52.538;13.400;2023-05-17T07:47:30;4.40;;;2.17;;
2111;SDS011;1062;52.538;13.400;2023-05-17T07:49:55;5.63;;;4.50;;
2111;SDS011;1062;52.538;13.400;2023-05-17T07:52:21;4.10;;;1.90;;
2111;SDS011;1062;52.538;13.400;2023-05-17T07:54:46;9.70;;;1.90;;
2111;SDS011;1062;52.538;13.400;2023-05-17T07:57:12;4.63;;;2.03;;
2111;SDS011;1062;52.538;13.400;2023-05-17T07:59:38;3.80;;;1.73;;
2111;SDS011;1062;52.538;13.400;2023-05-17T08:02:03;3.83;;;1.90;;
2111;SDS011;1062;52.538;13.400;2023-05-17T08:04:29;4.53;;;1.70;;
2111;SDS011;1062;52.538;13.400;2023-05-17T08:06:55;3.80;;;1.40;;
2111;SDS011;1062;52.538;13.400;2023-05-17T08:09:20;6.20;;;1.63;;
2111;SDS011;1062;52.538;13.400;2023-05-17T08:11:46;4.40;;;1.87;;
2111;SDS011;1062;52.538;13.400;2023-05-17T08:14:15;5.60;;;1.90;;
2111;SDS011;1062;52.538;13.400;2023-05-17T08:16:41;4.30;;;1.70;;
2111;SDS011;1062;52.538;13.400;2023-05-17T08:19:09;2.90;;;1.40;;
2111;SDS011;1062;52.538;13.400;2023-05-17T08:21:39;4.70;;;2.20;;
2111;SDS011;1062;52.538;13.400;2023-05-17T08:24:06;5.20;;;2.70;;
2111;SDS011;1062;52.538;13.400;2023-05-17T08:26:31;7.77;;;2.30;;
2111;SDS011;1062;52.538;13.400;2023-05-17T08:28:57;6.37;;;2.10;;
2111;SDS011;1062;52.538;13.400;2023-05-17T08:31:23;8.63;;;1.97;;
2111;SDS011;1062;52.538;13.400;2023-05-17T08:33:49;4.77;;;1.90;;
2111;SDS011;1062;52.538;13.400;2023-05-17T08:36:14;11.33;;;2.27;;
2111;SDS011;1062;52.538;13.400;2023-05-17T08:38:40;7.40;;;2.50;;
2111;SDS011;1062;52.538;13.400;2023-05-17T08:41:07;8.80;;;2.60;;
2111;SDS011;1062;52.538;13.400;2023-05-17T08:43:33;5.93;;;2.20;;
2111;SDS011;1062;52.538;13.400;2023-05-17T08:45:59;5.00;;;1.73;;
2111;SDS011;1062;52.538;13.400;2023-05-17T08:48:28;7.70;;;3.27;;
2111;SDS011;1062;52.538;13.400;2023-05-17T08:50:55;10.20;;;2.87;;
2111;SDS011;1062;52.538;13.400;2023-05-17T08:53:24;7.93;;;2.83;;
2111;SDS011;1062;52.538;13.400;2023-05-17T08:55:50;5.43;;;2.20;;
2111;SDS011;1062;52.538;13.400;2023-05-17T08:58:23;5.10;;;2.30;;
2111;SDS011;1062;52.538;13.400;2023-05-17T09:00:51;4.60;;;1.67;;
2111;SDS011;1062;52.538;13.400;2023-05-17T09:03:20;4.60;;;1.93;;
2111;SDS011;1062;52.538;13.400;2023-05-17T09:05:50;6.70;;;2.00;;
2111;SDS011;1062;52.538;13.400;2023-05-17T09:08:22;5.60;;;2.23;;
2111;SDS011;1062;52.538;13.400;2023-05-17T09:10:48;6.73;;;1.87;;
2111;SDS011;1062;52.538;13.400;2023-05-17T09:13:14;5.00;;;1.83;;
2111;SDS011;1062;52.538;13.400;2023-05-17T09:15:43;4.27;;;1.60;;
2111;SDS011;1062;52.538;13.400;2023-05-17T09:18:11;3.87;;;1.80;;
2111;SDS011;1062;52.538;13.400;2023-05-17T09:20:36;7.53;;;1.90;;
2111;SDS011;1062;52.538;13.400;2023-05-17T09:23:04;3.87;;;1.90;;
2111;SDS011;1062;52.538;13.400;2023-05-17T09:25:30;10.90;;;1.97;;
2111;SDS011;1062;52.538;13.400;2023-05-17T09:28:04;4.23;;;1.90;;
2111;SDS011;1062;52.538;13.400;2023-05-17T09:30:34;7.43;;;2.97;;
2111;SDS011;1062;52.538;13.400;2023-05-17T09:33:04;8.67;;;2.17;;
2111;SDS011;1062;52.538;13.400;2023-05-17T09:35:31;7.37;;;1.80;;
2111;SDS011;1062;52.538;13.400;2023-05-17T09:38:07;7.10;;;2.90;;
2111;SDS011;1062;52.538;13.400;2023-05-17T09:40:41;5.03;;;2.20;;
2111;SDS011;1062;52.538;13.400;2023-05-17T09:43:08;8.83;;;2.17;;
2111;SDS011;1062;52.538;13.400;2023-05-17T09:45:35;5.97;;;1.93;;
2111;SDS011;1062;52.538;13.400;2023-05-17T09:50:42;6.53;;;1.93;;
2111;SDS011;1062;52.538;13.400;2023-05-17T09:53:21;7.40;;;2.23;;
2111;SDS011;1062;52.538;13.400;2023-05-17T09:55:46;7.57;;;1.90;;
2111;SDS011;1062;52.538;13.400;2023-05-17T09:58:12;5.33;;;2.00;;
2111;SDS011;1062;52.538;13.400;2023-05-17T10:00:38;4.80;;;1.63;;
2111;SDS011;1062;52.538;13.400;2023-05-17T10:03:05;7.60;;;2.00;;
2111;SDS011;1062;52.538;13.400;2023-05-17T10:05:34;4.10;;;2.13;;
2111;SDS011;1062;52.538;13.400;2023-05-17T10:08:01;4.23;;;1.47;;
2111;SDS011;1062;52.538;13.400;2023-05-17T10:10:28;3.93;;;2.07;;
2111;SDS011;1062;52.538;13.400;2023-05-17T10:12:54;6.80;;;2.33;;
2111;SDS011;1062;52.538;13.400;2023-05-17T10:15:21;3.50;;;1.70;;
2111;SDS011;1062;52.538;13.400;2023-05-17T10:17:47;6.80;;;2.23;;
2111;SDS011;1062;52.538;13.400;2023-05-17T10:20:14;5.80;;;1.80;;
2111;SDS011;1062;52.538;13.400;2023-05-17T10:22:41;5.97;;;1.40;;
2111;SDS011;1062;52.538;13.400;2023-05-17T10:25:07;10.80;;;2.80;;
2111;SDS011;1062;52.538;13.400;2023-05-17T10:27:33;7.23;;;2.40;;
2111;SDS011;1062;52.538;13.400;2023-05-17T10:29:59;4.23;;;1.87;;
2111;SDS011;1062;52.538;13.400;2023-05-17T10:32:26;13.20;;;2.30;;
2111;SDS011;1062;52.538;13.400;2023-05-17T10:34:52;5.53;;;1.63;;
2111;SDS011;1062;52.538;13.400;2023-05-17T10:37:19;4.07;;;1.93;;
2111;SDS011;1062;52.538;13.400;2023-05-17T10:39:46;4.93;;;1.70;;
2111;SDS011;1062;52.538;13.400;2023-05-17T10:42:15;3.10;;;2.13;;
2111;SDS011;1062;52.538;13.400;2023-05-17T10:44:43;6.40;;;1.73;;
2111;SDS011;1062;52.538;13.400;2023-05-17T10:47:09;7.37;;;2.73;;
2111;SDS011;1062;52.538;13.400;2023-05-17T10:49:36;6.57;;;2.20;;
2111;SDS011;1062;52.538;13.400;2023-05-17T10:52:14;4.83;;;2.13;;
2111;SDS011;1062;52.538;13.400;2023-05-17T10:54:42;4.30;;;1.77;;
2111;SDS011;1062;52.538;13.400;2023-05-17T10:57:17;6.77;;;2.03;;
2111;SDS011;1062;52.538;13.400;2023-05-17T10:59:56;8.63;;;2.50;;
2111;SDS011;1062;52.538;13.400;2023-05-17T11:02:24;4.43;;;2.30;;
2111;SDS011;1062;52.538;13.400;2023-05-17T11:04:51;8.83;;;1.80;;
2111;SDS011;1062;52.538;13.400;2023-05-17T11:09:43;5.27;;;1.50;;
2111;SDS011;1062;52.538;13.400;2023-05-17T11:12:11;2.70;;;1.60;;
2111;SDS011;1062;52.538;13.400;2023-05-17T11:14:47;9.93;;;2.20;;
2111;SDS011;1062;52.538;13.400;2023-05-17T11:22:23;7.17;;;2.33;;
2111;SDS011;1062;52.538;13.400;2023-05-17T11:24:50;6.40;;;1.63;;
2111;SDS011;1062;52.538;13.400;2023-05-17T11:27:20;4.73;;;2.10;;
2111;SDS011;1062;52.538;13.400;2023-05-17T11:29:51;5.00;;;3.00;;
2111;SDS011;1062;52.538;13.400;2023-05-17T11:32:24;3.73;;;2.00;;
2111;SDS011;1062;52.538;13.400;2023-05-17T11:34:52;3.90;;;1.73;;
2111;SDS011;1062;52.538;13.400;2023-05-17T11:37:24;5.50;;;1.90;;
2111;SDS011;1062;52.538;13.400;2023-05-17T11:40:06;8.30;;;1.70;;
2111;SDS011;1062;52.538;13.400;2023-05-17T11:42:33;5.03;;;1.60;;
2111;SDS011;1062;52.538;13.400;2023-05-17T11:45:00;3.90;;;1.90;;
2111;SDS011;1062;52.538;13.400;2023-05-17T11:47:26;5.30;;;1.90;;
2111;SDS011;1062;52.538;13.400;2023-05-17T11:49:53;4.10;;;2.17;;
2111;SDS011;1062;52.538;13.400;2023-05-17T11:52:20;5.23;;;2.50;;
2111;SDS011;1062;52.538;13.400;2023-05-17T11:54:47;3.30;;;1.60;;
2111;SDS011;1062;52.538;13.400;2023-05-17T11:57:13;5.87;;;1.73;;
2111;SDS011;1062;52.538;13.400;2023-05-17T11:59:41;5.67;;;1.80;;
2111;SDS011;1062;52.538;13.400;2023-05-17T12:02:07;4.30;;;1.67;;
2111;SDS011;1062;52.538;13.400;2023-05-17T12:04:36;7.17;;;1.90;;
2111;SDS011;1062;52.538;13.400;2023-05-17T12:07:03;7.87;;;2.00;;
2111;SDS011;1062;52.538;13.400;2023-05-17T12:09:29;6.60;;;1.90;;
2111;SDS011;1062;52.538;13.400;2023-05-17T12:11:55;5.70;;;2.50;;
2111;SDS011;1062;52.538;13.400;2023-05-17T12:14:22;8.43;;;1.93;;
2111;SDS011;1062;52.538;13.400;2023-05-17T12:16:51;3.30;;;2.20;;
2111;SDS011;1062;52.538;13.400;2023-05-17T12:19:20;3.70;;;1.63;;
2111;SDS011;1062;52.538;13.400;2023-05-17T12:21:47;6.67;;;2.23;;
2111;SDS011;1062;52.538;13.400;2023-05-17T12:24:13;7.00;;;2.10;;
2111;SDS011;1062;52.538;13.400;2023-05-17T12:26:43;4.53;;;2.67;;
2111;SDS011;1062;52.538;13.400;2023-05-17T12:29:09;5.30;;;1.97;;
2111;SDS011;1062;52.538;13.400;2023-05-17T12:31:39;3.93;;;1.87;;
2111;SDS011;1062;52.538;13.400;2023-05-17T12:34:07;3.33;;;1.33;;
2111;SDS011;1062;52.538;13.400;2023-05-17T12:36:36;6.80;;;1.47;;
2111;SDS011;1062;52.538;13.400;2023-05-17T12:39:02;6.37;;;1.80;;
2111;SDS011;1062;52.538;13.400;2023-05-17T12:41:30;5.73;;;2.20;;
2111;SDS011;1062;52.538;13.400;2023-05-17T12:43:56;4.77;;;1.67;;
2111;SDS011;1062;52.538;13.400;2023-05-17T12:46:22;2.67;;;1.40;;
2111;SDS011;1062;52.538;13.400;2023-05-17T12:48:52;5.63;;;2.10;;
2111;SDS011;1062;52.538;13.400;2023-05-17T12:51:19;3.27;;;2.13;;
2111;SDS011;1062;52.538;13.400;2023-05-17T12:53:48;9.03;;;3.37;;
2111;SDS011;1062;52.538;13.400;2023-05-17T12:56:21;3.10;;;1.80;;
2111;SDS011;1062;52.538;13.400;2023-05-17T13:01:40;5.10;;;1.70;;
2111;SDS011;1062;52.538;13.400;2023-05-17T13:04:08;18.53;;;7.70;;
2111;SDS011;1062;52.538;13.400;2023-05-17T13:09:12;4.83;;;1.70;;
2111;SDS011;1062;52.538;13.400;2023-05-17T13:11:39;5.03;;;1.70;;
2111;SDS011;1062;52.538;13.400;2023-05-17T13:14:06;6.10;;;1.93;;
2111;SDS011;1062;52.538;13.400;2023-05-17T13:16:33;7.97;;;2.20;;
2111;SDS011;1062;52.538;13.400;2023-05-17T13:19:01;7.67;;;2.10;;
2111;SDS011;1062;52.538;13.400;2023-05-17T13:21:36;5.43;;;2.00;;
2111;SDS011;1062;52.538;13.400;2023-05-17T13:24:02;4.83;;;1.90;;
2111;SDS011;1062;52.538;13.400;2023-05-17T13:26:28;5.97;;;1.57;;
2111;SDS011;1062;52.538;13.400;2023-05-17T13:28:53;5.63;;;1.67;;
2111;SDS011;1062;52.538;13.400;2023-05-17T13:31:19;5.23;;;2.07;;
2111;SDS011;1062;52.538;13.400;2023-05-17T13:33:44;6.57;;;1.97;;
2111;SDS011;1062;52.538;13.400;2023-05-17T13:36:13;4.67;;;1.77;;
2111;SDS011;1062;52.538;13.400;2023-05-17T13:38:40;5.37;;;2.20;;
2111;SDS011;1062;52.538;13.400;2023-05-17T13:41:05;6.10;;;2.53;;
2111;SDS011;1062;52.538;13.400;2023-05-17T13:43:34;13.27;;;1.93;;
2111;SDS011;1062;52.538;13.400;2023-05-17T13:46:00;5.17;;;2.10;;
2111;SDS011;1062;52.538;13.400;2023-05-17T13:48:27;7.10;;;2.50;;
2111;SDS011;1062;52.538;13.400;2023-05-17T13:50:53;3.93;;;2.50;;
2111;SDS011;1062;52.538;13.400;2023-05-17T13:53:19;8.13;;;2.20;;
2111;SDS011;1062;52.538;13.400;2023-05-17T13:55:47;5.27;;;1.97;;
2111;SDS011;1062;52.538;13.400;2023-05-17T13:58:13;3.90;;;1.97;;
2111;SDS011;1062;52.538;13.400;2023-05-17T14:00:39;3.23;;;2.07;;
2111;SDS011;1062;52.538;13.400;2023-05-17T14:03:07;2.70;;;1.80;;
2111;SDS011;1062;52.538;13.400;2023-05-17T14:05:33;4.33;;;1.83;;
2111;SDS011;1062;52.538;13.400;2023-05-17T14:08:00;6.30;;;1.73;;
2111;SDS011;1062;52.538;13.400;2023-05-17T14:10:26;7.23;;;2.00;;
2111;SDS011;1062;52.538;13.400;2023-05-17T14:12:52;6.27;;;1.80;;
2111;SDS011;1062;52.538;13.400;2023-05-17T14:15:18;6.47;;;1.90;;
2111;SDS011;1062;52.538;13.400;2023-05-17T14:17:43;4.40;;;2.37;;
2111;SDS011;1062;52.538;13.400;2023-05-17T14:20:09;5.37;;;2.30;;
2111;SDS011;1062;52.538;13.400;2023-05-17T14:22:35;3.57;;;1.70;;
2111;SDS011;1062;52.538;13.400;2023-05-17T14:25:01;4.70;;;2.20;;
2111;SDS011;1062;52.538;13.400;2023-05-17T14:27:26;12.17;;;2.13;;
2111;SDS011;1062;52.538;13.400;2023-05-17T14:29:52;3.90;;;1.43;;
2111;SDS011;1062;52.538;13.400;2023-05-17T14:32:18;7.80;;;2.57;;
2111;SDS011;1062;52.538;13.400;2023-05-17T14:34:43;7.77;;;2.60;;
2111;SDS011;1062;52.538;13.400;2023-05-17T14:37:09;4.63;;;1.60;;
2111;SDS011;1062;52.538;13.400;2023-05-17T14:39:35;5.87;;;2.70;;
2111;SDS011;1062;52.538;13.400;2023-05-17T14:42:00;4.33;;;1.70;;
2111;SDS011;1062;52.538;13.400;2023-05-17T14:44:26;8.03;;;1.90;;
2111;SDS011;1062;52.538;13.400;2023-05-17T14:46:51;9.37;;;2.40;;
2111;SDS011;1062;52.538;13.400;2023-05-17T14:49:17;4.70;;;2.23;;
2111;SDS011;1062;52.538;13.400;2023-05-17T14:51:43;4.83;;;3.73;;
2111;SDS011;1062;52.538;13.400;2023-05-17T14:54:08;9.73;;;1.87;;
2111;SDS011;1062;52.538;13.400;2023-05-17T14:56:34;5.73;;;2.07;;
2111;SDS011;1062;52.538;13.400;2023-05-17T14:59:00;4.10;;;1.70;;
2111;SDS011;1062;52.538;13.400;2023-05-17T15:01:26;5.57;;;2.80;;
2111;SDS011;1062;52.538;13.400;2023-05-17T15:03:53;4.03;;;1.77;;
2111;SDS011;1062;52.538;13.400;2023-05-17T15:06:18;7.30;;;2.13;;
2111;SDS011;1062;52.538;13.400;2023-05-17T15:08:49;4.13;;;2.20;;
2111;SDS011;1062;52.538;13.400;2023-05-17T15:11:14;3.90;;;2.20;;
2111;SDS011;1062;52.538;13.400;2023-05-17T15:13:40;8.60;;;2.30;;
2111;SDS011;1062;52.538;13.400;2023-05-17T15:16:06;3.40;;;2.20;;
2111;SDS011;1062;52.538;13.400;2023-05-17T15:18:32;4.00;;;2.00;;
2111;SDS011;1062;52.538;13.400;2023-05-17T15:20:58;12.00;;;3.40;;
2111;SDS011;1062;52.538;13.400;2023-05-17T15:23:25;7.37;;;4.10;;
2111;SDS011;1062;52.538;13.400;2023-05-17T15:25:51;4.43;;;3.10;;
2111;SDS011;1062;52.538;13.400;2023-05-17T15:28:16;3.77;;;1.80;;
2111;SDS011;1062;52.538;13.400;2023-05-17T15:30:44;5.63;;;3.83;;